Time;durP1;ratioP1;P1;durP2;ratioP2;P2;SDS_P1;SDS_P2;PMS_P1;PMS_P2;Temp;Humidity;BMP_temperature;BMP_pressure;BME280_temperature;BME280_humidity;BME280_pressure;Samples;Min_cycle;Max_cycle;Signal;HPM_P1;HPM_P2
2023/03/19 00:00:17;;;;;;;;;;;;;;;-1.37;77.80;93892.31;5018484;28;19962;-38
2023/03/19 00:02:48;;;;;;;;;;;;;;;-1.42;77.59;93892.94;5027750;28;20046;-38
2023/03/19 00:05:14;;;;;;;;;;;;;;;-1.78;78.76;93889.25;5026379;28;19962;-38
2023/03/19 00:07:39;;;;;;;;;;;;;;;-2.01;79.69;93887.22;5020439;28;19961;-38
2023/03/19 00:10:05;;;;;;;;;;;;;;;-2.05;80.18;93897.47;5021917;28;19940;-38
2023/03/19 00:12:30;;;;;;;;;;;;;;;-1.89;80.21;93889.00;5018183;28;20339;-38
2023/03/19 00:14:55;;;;;;;;;;;;;;;-1.86;79.12;93881.91;5019723;28;19997;-38
2023/03/19 00:17:21;;;;;;;;;;;;;;;-1.92;79.22;93889.16;5023857;28;19944;-37
2023/03/19 00:19:46;;;;;;;;;;;;;;;-1.86;78.69;93877.25;5026552;28;20408;-38
2023/03/19 00:22:11;;;;;;;;;;;;;;;-2.02;79.71;93877.63;5020997;28;20009;-38
2023/03/19 00:24:37;;;;;;;;;;;;;;;-2.05;79.34;93875.84;5022796;28;19934;-38
2023/03/19 00:27:02;;;;;;;;;;;;;;;-1.77;78.55;93879.16;5028555;28;19947;-38
2023/03/19 00:29:28;;;;;;;;;;;;;;;-1.83;78.98;93873.63;5029410;28;20490;-38
2023/03/19 00:31:53;;;;;;;;;;;;;;;-1.71;77.97;93869.22;5022322;28;19945;-38
2023/03/19 00:34:18;;;;;;;;;;;;;;;-1.70;77.98;93876.13;5030688;28;19929;-38
2023/03/19 00:36:44;;;;;;;;;;;;;;;-1.58;78.12;93864.31;5025263;28;20419;-38
2023/03/19 00:39:10;;;;;;;;;;;;;;;-2.04;79.33;93874.63;5021494;28;20390;-38
2023/03/19 00:41:35;;;;;;;;;;;;;;;-2.30;80.15;93887.06;5026025;28;20025;-38
2023/03/19 00:44:01;;;;;;;;;;;;;;;-2.36;80.45;93875.38;5025144;28;19941;-38
2023/03/19 00:46:26;;;;;;;;;;;;;;;-2.29;80.16;93880.44;5025887;28;20376;-38
2023/03/19 00:48:54;;;;;;;;;;;;;;;-2.28;81.02;93881.94;5027122;28;20727;-38
2023/03/19 00:51:19;;;;;;;;;;;;;;;-2.12;79.87;93881.56;5031847;28;19933;-38
2023/03/19 00:53:44;;;;;;;;;;;;;;;-2.28;80.27;93878.47;5025860;28;19934;-38
2023/03/19 00:56:11;;;;;;;;;;;;;;;-2.12;79.67;93873.44;5024408;28;19933;-38
2023/03/19 00:58:37;;;;;;;;;;;;;;;-2.39;79.89;93871.59;5018003;28;19958;-38
2023/03/19 01:01:03;;;;;;;;;;;;;;;-2.47;79.82;93867.72;5019536;28;19971;-38
2023/03/19 01:03:28;;;;;;;;;;;;;;;-2.44;79.94;93866.81;5025365;28;20324;-38
2023/03/19 01:05:53;;;;;;;;;;;;;;;-2.27;80.29;93869.91;5024964;28;20001;-38
2023/03/19 01:08:19;;;;;;;;;;;;;;;-2.32;79.87;93865.13;5022301;28;19937;-38
2023/03/19 01:10:44;;;;;;;;;;;;;;;-2.43;79.89;93865.63;5024177;28;20006;-39
2023/03/19 01:13:10;;;;;;;;;;;;;;;-2.12;78.73;93859.19;5058683;28;19936;-39
2023/03/19 01:15:36;;;;;;;;;;;;;;;-2.35;79.93;93861.38;5024119;28;20058;-38
2023/03/19 01:18:01;;;;;;;;;;;;;;;-2.34;79.80;93859.44;5021986;28;19930;-38
2023/03/19 01:20:26;;;;;;;;;;;;;;;-2.26;79.68;93860.59;5031843;28;19988;-39
2023/03/19 01:22:52;;;;;;;;;;;;;;;-2.15;79.42;93860.09;5020227;28;19954;-38
2023/03/19 01:25:17;;;;;;;;;;;;;;;-2.29;80.28;93858.78;5027350;28;20306;-38
2023/03/19 01:27:42;;;;;;;;;;;;;;;-2.61;81.34;93851.38;5015860;28;19939;-38
2023/03/19 01:30:08;;;;;;;;;;;;;;;-2.61;81.84;93851.38;5018685;28;20024;-38
2023/03/19 01:32:33;;;;;;;;;;;;;;;-2.56;81.12;93845.38;5024994;28;19939;-38
2023/03/19 01:34:58;;;;;;;;;;;;;;;-2.75;80.99;93844.66;5017931;28;19937;-38
2023/03/19 01:37:24;;;;;;;;;;;;;;;-2.43;79.84;93845.94;5028008;28;20364;-38
2023/03/19 01:39:49;;;;;;;;;;;;;;;-2.54;79.91;93841.00;5032052;28;19939;-37
2023/03/19 01:42:14;;;;;;;;;;;;;;;-2.52;80.79;93840.56;5027800;28;19971;-38
2023/03/19 01:44:40;;;;;;;;;;;;;;;-2.50;81.33;93846.25;5031482;28;20092;-38
2023/03/19 01:47:32;;;;;;;;;;;;;;;-2.50;81.33;93846.25;5029801;28;20324;-38
2023/03/19 01:49:58;;;;;;;;;;;;;;;-2.31;80.75;93836.88;5025634;28;19944;-38
2023/03/19 01:52:23;;;;;;;;;;;;;;;-2.43;80.57;93835.88;5025768;28;19930;-37
2023/03/19 01:54:49;;;;;;;;;;;;;;;-2.53;80.58;93839.03;5030717;28;19933;-38
2023/03/19 01:57:15;;;;;;;;;;;;;;;-2.61;80.76;93840.56;5023476;28;19962;-38
2023/03/19 01:59:44;;;;;;;;;;;;;;;-2.73;82.19;93836.84;5045712;28;19961;-38
2023/03/19 02:02:15;;;;;;;;;;;;;;;-2.75;82.05;93831.13;5050246;28;19945;-38
2023/03/19 02:04:40;;;;;;;;;;;;;;;-3.01;81.59;93840.78;5031065;28;19941;-37
2023/03/19 02:07:06;;;;;;;;;;;;;;;-3.05;81.71;93842.16;5031195;28;19943;-38
2023/03/19 02:09:31;;;;;;;;;;;;;;;-3.17;82.80;93841.88;5045450;28;19939;-38
2023/03/19 02:11:57;;;;;;;;;;;;;;;-3.24;83.18;93839.47;5034975;28;20491;-38
2023/03/19 02:14:22;;;;;;;;;;;;;;;-3.07;83.28;93840.66;5031398;28;19941;-38
2023/03/19 02:16:47;;;;;;;;;;;;;;;-2.94;82.27;93848.59;5029051;28;20016;-38
2023/03/19 02:19:15;;;;;;;;;;;;;;;-2.75;82.88;93847.34;5057981;28;20453;-38
2023/03/19 02:21:41;;;;;;;;;;;;;;;-2.61;81.96;93843.28;5028389;28;20017;-38
2023/03/19 02:24:06;;;;;;;;;;;;;;;-3.04;81.42;93855.22;5025578;28;20026;-38
2023/03/19 02:26:32;;;;;;;;;;;;;;;-2.82;81.73;93852.34;5022740;28;19928;-38
2023/03/19 02:28:57;;;;;;;;;;;;;;;-2.63;80.83;93851.09;5036948;28;19930;-38
2023/03/19 02:31:22;;;;;;;;;;;;;;;-2.46;79.52;93853.00;5020117;28;20448;-38
2023/03/19 02:33:55;;;;;;;;;;;;;;;-2.93;80.60;93858.22;5030827;28;20060;-38
2023/03/19 02:36:21;;;;;;;;;;;;;;;-3.15;81.77;93855.69;5023925;28;19944;-38
2023/03/19 02:38:46;;;;;;;;;;;;;;;-3.38;83.16;93855.53;5052991;28;20559;-38
2023/03/19 02:41:11;;;;;;;;;;;;;;;-3.49;83.65;93850.56;5057078;28;19943;-39
2023/03/19 02:43:37;;;;;;;;;;;;;;;-3.46;83.75;93852.34;5028376;28;19947;-39
2023/03/19 02:46:03;;;;;;;;;;;;;;;-3.39;83.60;93852.06;5023175;28;20540;-38
2023/03/19 02:48:29;;;;;;;;;;;;;;;-3.38;83.86;93844.72;5055899;28;19934;-38
2023/03/19 02:50:54;;;;;;;;;;;;;;;-3.31;84.55;93839.75;5027623;28;20554;-38
2023/03/19 02:53:20;;;;;;;;;;;;;;;-3.22;84.67;93839.78;5021742;28;19937;-39
2023/03/19 02:55:45;;;;;;;;;;;;;;;-3.08;84.16;93844.56;5018995;28;20768;-38
2023/03/19 02:58:11;;;;;;;;;;;;;;;-3.01;82.56;93831.97;5024659;28;20030;-39
2023/03/19 03:00:36;;;;;;;;;;;;;;;-2.96;82.92;93839.44;5026505;28;20447;-38
2023/03/19 03:03:01;;;;;;;;;;;;;;;-2.86;81.58;93846.34;5020500;28;19951;-39
2023/03/19 03:05:27;;;;;;;;;;;;;;;-3.22;82.40;93845.16;5059251;28;19980;-38
2023/03/19 03:07:52;;;;;;;;;;;;;;;-3.42;83.09;93850.25;5025989;28;19942;-38
2023/03/19 03:10:18;;;;;;;;;;;;;;;-3.50;83.70;93849.06;5019540;28;20523;-38
2023/03/19 03:12:43;;;;;;;;;;;;;;;-3.31;83.39;93860.59;5025843;28;20421;-38
2023/03/19 03:15:08;;;;;;;;;;;;;;;-3.18;82.60;93858.50;5030948;28;19936;-39
2023/03/19 03:17:37;;;;;;;;;;;;;;;-3.34;83.56;93858.81;5020767;28;20419;-38
2023/03/19 03:20:03;;;;;;;;;;;;;;;-3.31;84.39;93853.25;5027352;28;19931;-38
2023/03/19 03:22:29;;;;;;;;;;;;;;;-3.10;84.56;93865.13;5013694;28;19945;-39
2023/03/19 03:24:54;;;;;;;;;;;;;;;-3.04;83.65;93862.56;5028915;28;19982;-38
2023/03/19 03:27:19;;;;;;;;;;;;;;;-3.26;83.97;93866.16;5019693;28;19950;-38
2023/03/19 03:29:44;;;;;;;;;;;;;;;-3.20;84.05;93869.75;5017330;28;19938;-38
2023/03/19 03:32:10;;;;;;;;;;;;;;;-3.17;83.65;93863.47;5015767;28;19982;-38
2023/03/19 03:34:35;;;;;;;;;;;;;;;-3.13;84.19;93866.00;5026945;28;19927;-38
2023/03/19 03:37:00;;;;;;;;;;;;;;;-2.92;82.99;93862.38;5015130;28;19941;-38
2023/03/19 03:39:26;;;;;;;;;;;;;;;-3.19;83.05;93862.41;5020393;28;20007;-38
2023/03/19 03:41:51;;;;;;;;;;;;;;;-3.11;83.15;93866.31;5024147;28;19940;-38
2023/03/19 03:44:17;;;;;;;;;;;;;;;-3.18;82.71;93861.97;5020953;28;19957;-38
2023/03/19 03:46:42;;;;;;;;;;;;;;;-3.27;83.34;93867.34;5030646;28;19928;-38
2023/03/19 03:49:08;;;;;;;;;;;;;;;-3.36;83.59;93867.38;5019456;28;19939;-38
2023/03/19 03:51:34;;;;;;;;;;;;;;;-3.20;83.38;93871.72;5027260;28;19975;-38
2023/03/19 03:53:59;;;;;;;;;;;;;;;-3.26;83.52;93878.91;5026038;28;20443;-38
2023/03/19 03:56:25;;;;;;;;;;;;;;;-3.18;82.71;93870.06;5023795;28;19932;-38
2023/03/19 03:58:51;;;;;;;;;;;;;;;-3.14;81.90;93884.16;5021024;28;19942;-38
2023/03/19 04:01:16;;;;;;;;;;;;;;;-3.13;81.80;93885.69;5024712;28;19994;-38
2023/03/19 04:03:41;;;;;;;;;;;;;;;-3.18;81.76;93885.50;5021828;28;19948;-38
2023/03/19 04:06:07;;;;;;;;;;;;;;;-3.29;82.09;93891.34;5020364;28;19943;-38
2023/03/19 04:08:33;;;;;;;;;;;;;;;-3.18;81.83;93897.06;5021647;28;20429;-38
2023/03/19 04:10:58;;;;;;;;;;;;;;;-3.60;82.24;93898.84;5022634;28;19936;-38
2023/03/19 04:13:24;;;;;;;;;;;;;;;-3.79;83.43;93900.00;5016861;28;19944;-38
2023/03/19 04:15:49;;;;;;;;;;;;;;;-3.86;83.61;93902.97;5023503;28;19973;-38
2023/03/19 04:18:14;;;;;;;;;;;;;;;-4.01;83.83;93907.41;5018159;28;19935;-38
2023/03/19 04:20:40;;;;;;;;;;;;;;;-4.05;84.20;93901.41;5022885;28;19928;-38
2023/03/19 04:23:05;;;;;;;;;;;;;;;-4.00;84.54;93909.66;5025722;28;20335;-39
2023/03/19 04:25:31;;;;;;;;;;;;;;;-3.99;84.85;93905.78;5021992;28;20312;-39
2023/03/19 04:27:56;;;;;;;;;;;;;;;-3.77;83.97;93908.38;5024095;28;20424;-38
2023/03/19 04:30:22;;;;;;;;;;;;;;;-3.70;83.97;93899.25;5026164;28;19935;-39
2023/03/19 04:32:47;;;;;;;;;;;;;;;-3.76;83.86;93895.63;5025753;28;19939;-39
2023/03/19 04:35:12;;;;;;;;;;;;;;;-3.53;83.47;93912.03;5028195;28;20342;-39
2023/03/19 04:37:38;;;;;;;;;;;;;;;-3.59;83.22;93902.25;5027152;28;19931;-38
2023/03/19 04:40:04;;;;;;;;;;;;;;;-3.60;83.95;93903.47;5024219;28;19989;-38
2023/03/19 04:42:29;;;;;;;;;;;;;;;-3.53;83.44;93903.91;5026593;28;19953;-39
2023/03/19 04:44:54;;;;;;;;;;;;;;;-3.38;82.86;93914.91;5025735;28;19935;-38
2023/03/19 04:47:19;;;;;;;;;;;;;;;-3.51;83.13;93915.03;5017830;28;20052;-38
2023/03/19 04:49:45;;;;;;;;;;;;;;;-3.56;83.64;93909.47;5026249;28;20120;-38
2023/03/19 04:52:11;;;;;;;;;;;;;;;-3.74;84.16;93907.47;5029289;28;19943;-38
2023/03/19 04:54:36;;;;;;;;;;;;;;;-3.78;83.90;93906.88;5031652;28;19934;-38
2023/03/19 04:57:01;;;;;;;;;;;;;;;-3.53;83.51;93920.13;5025826;28;20464;-39
2023/03/19 04:59:26;;;;;;;;;;;;;;;-3.55;82.56;93919.81;5022900;28;19933;-39
2023/03/19 05:01:52;;;;;;;;;;;;;;;-3.71;82.66;93920.09;5024143;28;19993;-39
2023/03/19 05:04:17;;;;;;;;;;;;;;;-3.61;82.81;93921.59;5017499;28;20475;-39
2023/03/19 05:06:42;;;;;;;;;;;;;;;-3.54;82.61;93929.41;5027633;28;19934;-39
2023/03/19 05:09:08;;;;;;;;;;;;;;;-3.32;81.93;93930.06;5026685;28;19998;-39
2023/03/19 05:11:33;;;;;;;;;;;;;;;-3.15;81.41;93935.94;5026990;28;20016;-39
2023/03/19 05:13:58;;;;;;;;;;;;;;;-3.47;82.63;93931.09;5024422;28;20318;-39
2023/03/19 05:16:24;;;;;;;;;;;;;;;-3.58;83.45;93931.53;5027788;28;19935;-39
2023/03/19 05:18:49;;;;;;;;;;;;;;;-3.60;84.28;93935.84;5034666;28;19990;-39
2023/03/19 05:21:14;;;;;;;;;;;;;;;-3.41;85.02;93940.09;5028086;28;19943;-39
2023/03/19 05:23:40;;;;;;;;;;;;;;;-3.30;84.19;93933.06;5029204;28;19956;-38
2023/03/19 05:26:05;;;;;;;;;;;;;;;-2.98;84.18;93930.97;5026571;28;19941;-39
2023/03/19 05:28:31;;;;;;;;;;;;;;;-2.53;82.87;93930.94;5024303;28;19929;-39
2023/03/19 05:30:56;;;;;;;;;;;;;;;-2.02;80.24;93936.41;5031598;28;19954;-38
2023/03/19 05:33:22;;;;;;;;;;;;;;;-1.85;79.86;93926.72;5032140;28;19938;-38
2023/03/19 05:35:47;;;;;;;;;;;;;;;-1.98;78.98;93923.44;5026359;28;19942;-39
2023/03/19 05:38:12;;;;;;;;;;;;;;;-2.25;78.98;93918.13;5027430;28;19933;-39
2023/03/19 05:40:40;;;;;;;;;;;;;;;-2.36;80.50;93922.06;5028299;28;19939;-39
2023/03/19 05:43:06;;;;;;;;;;;;;;;-2.26;81.04;93919.34;5021993;28;19957;-39
2023/03/19 05:45:31;;;;;;;;;;;;;;;-2.06;81.08;93917.63;5019667;28;20480;-39
2023/03/19 05:47:56;;;;;;;;;;;;;;;-1.77;80.47;93917.03;5017582;28;19942;-38
2023/03/19 05:50:22;;;;;;;;;;;;;;;-0.94;78.34;93913.38;5024886;28;19935;-38
2023/03/19 05:52:47;;;;;;;;;;;;;;;-0.02;74.63;93912.81;5027369;28;20432;-38
2023/03/19 05:55:12;;;;;;;;;;;;;;;0.42;70.69;93910.03;5027270;28;19937;-39
2023/03/19 05:57:38;;;;;;;;;;;;;;;0.83;70.63;93919.00;5031503;28;19938;-38
2023/03/19 06:00:05;;;;;;;;;;;;;;;1.50;67.12;93915.09;5020606;28;19971;-39
2023/03/19 06:02:30;;;;;;;;;;;;;;;1.41;68.16;93918.69;5020901;28;19949;-39
2023/03/19 06:04:56;;;;;;;;;;;;;;;2.02;66.38;93918.56;5028313;28;19934;-38
2023/03/19 06:07:21;;;;;;;;;;;;;;;2.77;64.51;93913.41;5023831;28;19971;-39
2023/03/19 06:09:46;;;;;;;;;;;;;;;3.46;61.54;93908.53;5030143;28;20423;-39
2023/03/19 06:12:11;;;;;;;;;;;;;;;3.89;60.47;93909.88;5021819;28;20028;-39
2023/03/19 06:14:37;;;;;;;;;;;;;;;4.73;57.97;93905.13;5053330;28;19961;-38
2023/03/19 06:17:02;;;;;;;;;;;;;;;4.83;56.46;93874.28;5025925;28;19981;-39
2023/03/19 06:19:27;;;;;;;;;;;;;;;5.53;54.89;93912.13;5031517;28;19932;-38
2023/03/19 06:21:53;;;;;;;;;;;;;;;5.55;54.84;93906.13;5021135;28;19941;-38
2023/03/19 06:24:18;;;;;;;;;;;;;;;6.01;53.47;93906.16;5031793;28;19948;-37
2023/03/19 06:26:43;;;;;;;;;;;;;;;6.29;53.17;93908.72;5025468;28;20181;-38
2023/03/19 06:29:09;;;;;;;;;;;;;;;6.85;51.52;93920.72;5024742;28;20345;-39
2023/03/19 06:31:35;;;;;;;;;;;;;;;7.59;50.02;93926.41;5026905;28;19950;-39
2023/03/19 06:34:00;;;;;;;;;;;;;;;8.58;47.58;93920.81;5028131;28;19986;-38
2023/03/19 06:36:25;;;;;;;;;;;;;;;9.94;45.01;93922.84;5023264;28;19928;-38
2023/03/19 06:38:51;;;;;;;;;;;;;;;10.83;42.29;93929.16;5022075;28;20000;-36
2023/03/19 06:41:16;;;;;;;;;;;;;;;12.37;39.43;93929.03;5024196;28;19982;-38
2023/03/19 06:43:42;;;;;;;;;;;;;;;13.40;37.54;93917.19;5022946;28;19950;-38
2023/03/19 06:46:08;;;;;;;;;;;;;;;13.78;35.19;93917.13;5022366;28;20408;-38
2023/03/19 06:48:33;;;;;;;;;;;;;;;12.85;36.01;93917.69;5026825;28;19973;-39
2023/03/19 06:50:59;;;;;;;;;;;;;;;12.49;36.71;93930.19;5023588;28;20481;-38
2023/03/19 06:53:24;;;;;;;;;;;;;;;13.23;35.43;93917.75;5023080;28;20377;-38
2023/03/19 06:55:50;;;;;;;;;;;;;;;13.91;34.62;93916.91;5029228;28;19928;-38
2023/03/19 06:58:15;;;;;;;;;;;;;;;15.13;33.03;93924.88;5019653;28;19984;-38
2023/03/19 07:00:40;;;;;;;;;;;;;;;16.65;30.56;93919.25;5016770;28;20054;-38
2023/03/19 07:03:06;;;;;;;;;;;;;;;18.34;28.92;93917.50;5019932;28;19951;-38
2023/03/19 07:05:32;;;;;;;;;;;;;;;19.21;26.66;93913.22;5018721;28;20412;-39
2023/03/19 07:07:57;;;;;;;;;;;;;;;19.24;26.32;93911.28;5020136;28;20446;-39
2023/03/19 07:10:22;;;;;;;;;;;;;;;19.75;25.06;93918.31;5022262;28;19936;-39
2023/03/19 07:12:47;;;;;;;;;;;;;;;20.10;24.75;93897.59;5020691;28;20410;-39
2023/03/19 07:15:13;;;;;;;;;;;;;;;20.51;24.63;93915.00;5019750;28;19970;-39
2023/03/19 07:17:38;;;;;;;;;;;;;;;21.83;23.08;93913.47;5020985;28;19958;-39
2023/03/19 07:20:04;;;;;;;;;;;;;;;21.79;23.01;93901.94;5022884;28;19951;-39
2023/03/19 07:22:29;;;;;;;;;;;;;;;20.46;25.23;93909.75;5023521;28;19965;-39
2023/03/19 07:24:54;;;;;;;;;;;;;;;21.74;21.94;93906.59;5023133;28;20815;-37
2023/03/19 07:27:20;;;;;;;;;;;;;;;22.54;21.13;93904.97;5019609;28;20027;-38
2023/03/19 07:29:46;;;;;;;;;;;;;;;22.21;20.82;93898.13;5021699;28;20021;-38
2023/03/19 07:32:11;;;;;;;;;;;;;;;21.78;22.79;93909.66;5019071;28;20076;-39
2023/03/19 07:34:36;;;;;;;;;;;;;;;22.00;21.56;93896.22;5018380;28;19937;-39
2023/03/19 07:37:02;;;;;;;;;;;;;;;21.45;23.78;93908.31;5017717;28;19979;-38
2023/03/19 07:39:27;;;;;;;;;;;;;;;22.81;21.91;93906.50;5016836;28;20658;-38
2023/03/19 07:41:52;;;;;;;;;;;;;;;22.96;21.03;93897.47;5021403;28;20411;-38
2023/03/19 07:44:18;;;;;;;;;;;;;;;22.79;21.33;93897.94;5016795;28;19939;-38
2023/03/19 07:46:43;;;;;;;;;;;;;;;23.01;20.23;93887.91;5017115;28;19940;-38
2023/03/19 07:49:08;;;;;;;;;;;;;;;23.34;19.85;93888.34;5023318;28;20483;-38
2023/03/19 07:51:33;;;;;;;;;;;;;;;19.99;23.66;93894.72;5019263;28;19950;-38
2023/03/19 07:53:59;;;;;;;;;;;;;;;22.89;22.44;93890.78;5016741;28;19942;-38
2023/03/19 07:56:25;;;;;;;;;;;;;;;23.35;21.02;93887.72;5013643;28;19999;-38
2023/03/19 07:58:50;;;;;;;;;;;;;;;23.75;22.33;93886.31;5021617;28;20546;-38
2023/03/19 08:01:16;;;;;;;;;;;;;;;24.80;19.46;93881.06;5021040;28;19965;-38
2023/03/19 08:03:43;;;;;;;;;;;;;;;24.94;18.61;93880.28;5015510;28;20252;-38
2023/03/19 08:06:08;;;;;;;;;;;;;;;23.72;19.46;93876.28;5013570;28;19945;-38
2023/03/19 08:08:34;;;;;;;;;;;;;;;25.32;18.18;93888.47;5018440;28;20462;-38
2023/03/19 08:11:00;;;;;;;;;;;;;;;25.66;19.20;93877.28;5016521;28;20052;-38
2023/03/19 08:13:25;;;;;;;;;;;;;;;25.95;18.64;93877.91;5015963;28;19939;-38
2023/03/19 08:15:52;;;;;;;;;;;;;;;26.15;19.08;93880.91;5018029;28;19932;-38
2023/03/19 08:18:17;;;;;;;;;;;;;;;26.63;18.61;93882.22;5016423;28;20020;-38
2023/03/19 08:20:43;;;;;;;;;;;;;;;26.15;18.72;93880.91;5015791;28;19965;-38
2023/03/19 08:23:09;;;;;;;;;;;;;;;26.15;17.37;93875.97;5016583;28;19954;-38
2023/03/19 08:25:34;;;;;;;;;;;;;;;26.63;19.14;93870.88;5018320;28;19957;-38
2023/03/19 08:28:00;;;;;;;;;;;;;;;26.82;18.57;93865.34;5029366;28;20347;-38
2023/03/19 08:30:25;;;;;;;;;;;;;;;24.35;20.38;93871.03;5022252;28;20006;-39
2023/03/19 08:32:50;;;;;;;;;;;;;;;22.33;22.31;93867.88;5028550;28;20453;-38
2023/03/19 08:35:15;;;;;;;;;;;;;;;21.67;23.75;93859.81;5038476;28;20024;-38
2023/03/19 08:37:41;;;;;;;;;;;;;;;19.91;25.22;93863.34;5034871;28;19990;-38
2023/03/19 08:40:07;;;;;;;;;;;;;;;20.80;25.46;93856.56;5022019;28;19940;-38
2023/03/19 08:42:33;;;;;;;;;;;;;;;21.19;25.56;93859.69;5028399;28;19955;-38
2023/03/19 08:44:58;;;;;;;;;;;;;;;22.83;23.19;93848.22;5017054;28;19939;-39
2023/03/19 08:47:23;;;;;;;;;;;;;;;22.49;23.38;93855.47;5025873;28;19928;-39
2023/03/19 08:49:50;;;;;;;;;;;;;;;24.01;24.04;93853.81;5022293;28;20384;-39
2023/03/19 08:52:15;;;;;;;;;;;;;;;23.96;21.54;93852.16;5020213;28;20079;-39
2023/03/19 08:54:41;;;;;;;;;;;;;;;22.67;22.66;93861.41;5026905;28;19964;-39
2023/03/19 08:57:06;;;;;;;;;;;;;;;22.01;23.90;93849.88;5022128;28;19937;-38
2023/03/19 08:59:31;;;;;;;;;;;;;;;22.18;23.31;93852.28;5019517;28;20027;-39
2023/03/19 09:01:56;;;;;;;;;;;;;;;20.80;24.79;93858.63;5025007;28;20539;-38
2023/03/19 09:04:22;;;;;;;;;;;;;;;22.32;23.00;93852.34;5023751;28;19928;-39
2023/03/19 09:06:50;;;;;;;;;;;;;;;23.85;20.90;93849.44;5022002;28;19986;-39
2023/03/19 09:09:17;;;;;;;;;;;;;;;23.33;21.46;93855.88;5021331;28;19941;-38
2023/03/19 09:11:42;;;;;;;;;;;;;;;22.50;22.29;93850.56;5026502;28;20129;-38
2023/03/19 09:14:08;;;;;;;;;;;;;;;20.55;24.95;93852.81;5029001;28;20529;-38
2023/03/19 09:16:33;;;;;;;;;;;;;;;22.87;24.49;93837.16;5026144;28;20024;-38
2023/03/19 09:18:58;;;;;;;;;;;;;;;23.74;21.95;93839.72;5024652;28;20344;-38
2023/03/19 09:21:23;;;;;;;;;;;;;;;22.97;25.06;93843.38;5021155;28;20101;-38
2023/03/19 09:23:49;;;;;;;;;;;;;;;22.90;22.66;93844.38;5023174;28;20637;-38
2023/03/19 09:26:14;;;;;;;;;;;;;;;24.81;20.47;93845.09;5009838;28;19942;-38
2023/03/19 09:28:39;;;;;;;;;;;;;;;26.06;20.18;93845.09;5022817;28;19951;-38
2023/03/19 09:31:08;;;;;;;;;;;;;;;27.31;17.77;93831.09;5020002;28;20002;-39
2023/03/19 09:33:33;;;;;;;;;;;;;;;26.01;18.35;93835.72;5047686;28;20428;-38
2023/03/19 09:35:58;;;;;;;;;;;;;;;25.42;20.86;93831.69;5021281;28;19934;-39
2023/03/19 09:38:23;;;;;;;;;;;;;;;25.82;19.45;93824.97;5020700;28;20004;-38
2023/03/19 09:41:01;;;;;;;;;;;;;;;26.44;18.09;93826.94;5031854;28;19929;-44
2023/03/19 09:43:35;;;;;;;;;;;;;;;25.05;19.39;93825.72;5029321;28;19960;-43
2023/03/19 09:46:02;;;;;;;;;;;;;;;25.60;21.35;93826.13;5023480;28;19979;-41
2023/03/19 09:48:31;;;;;;;;;;;;;;;24.30;21.55;93815.75;5015451;28;19931;-43
2023/03/19 09:50:56;;;;;;;;;;;;;;;24.57;21.80;93815.66;5021588;28;19940;-43
2023/03/19 09:53:40;;;;;;;;;;;;;;;25.05;21.92;93808.75;5014033;28;19932;-43
2023/03/19 09:56:06;;;;;;;;;;;;;;;25.44;20.03;93815.56;5022834;28;19940;-43
2023/03/19 09:58:32;;;;;;;;;;;;;;;26.20;18.46;93818.19;5026806;28;20322;-38
2023/03/19 10:00:57;;;;;;;;;;;;;;;26.02;18.68;93808.88;5023997;28;19976;-38
2023/03/19 10:03:25;;;;;;;;;;;;;;;25.59;18.62;93814.06;5034201;28;20415;-38
2023/03/19 10:06:00;;;;;;;;;;;;;;;25.49;21.49;93797.38;5033491;28;19930;-38
2023/03/19 10:08:25;;;;;;;;;;;;;;;24.65;19.58;93799.09;5026667;28;19949;-38
2023/03/19 10:11:09;;;;;;;;;;;;;;;24.45;21.64;93800.97;5027223;28;21281;-38
2023/03/19 10:13:40;;;;;;;;;;;;;;;24.66;22.38;93792.84;5024307;28;20220;-38
2023/03/19 10:16:08;;;;;;;;;;;;;;;25.82;18.47;93799.53;5018879;28;20009;-38
2023/03/19 10:18:34;;;;;;;;;;;;;;;25.65;20.52;93799.47;5048222;28;19936;-38
2023/03/19 10:21:03;;;;;;;;;;;;;;;26.51;20.16;93791.81;5042830;28;20540;-38
2023/03/19 10:23:40;;;;;;;;;;;;;;;26.76;20.68;93782.22;5027709;28;19946;-38
2023/03/19 10:26:08;;;;;;;;;;;;;;;25.72;18.76;93781.41;5022686;28;19941;-38
2023/03/19 10:28:33;;;;;;;;;;;;;;;26.32;19.13;93775.47;5058436;28;19932;-38
2023/03/19 10:31:08;;;;;;;;;;;;;;;26.03;21.13;93765.06;5042268;28;19960;-38
2023/03/19 10:33:36;;;;;;;;;;;;;;;26.10;21.33;93768.88;5036316;28;19987;-38
2023/03/19 10:36:06;;;;;;;;;;;;;;;26.85;17.50;93764.88;5054551;28;19931;-38
2023/03/19 10:38:32;;;;;;;;;;;;;;;26.76;17.82;93756.72;5052935;28;19934;-38
2023/03/19 10:41:03;;;;;;;;;;;;;;;24.05;20.51;93751.75;5019518;28;19937;-38
2023/03/19 10:43:29;;;;;;;;;;;;;;;25.28;19.69;93754.69;5016510;28;20148;-38
2023/03/19 10:45:56;;;;;;;;;;;;;;;25.74;21.46;93748.28;5028188;28;20007;-38
2023/03/19 10:48:21;;;;;;;;;;;;;;;26.43;20.80;93757.50;5020664;28;19952;-38
2023/03/19 10:50:55;;;;;;;;;;;;;;;27.76;19.78;93748.41;5058778;28;19930;-38
2023/03/19 10:53:27;;;;;;;;;;;;;;;27.98;20.49;93754.16;5029053;28;19928;-38
2023/03/19 10:55:54;;;;;;;;;;;;;;;26.83;19.48;93749.91;5026673;28;20311;-38
2023/03/19 10:58:20;;;;;;;;;;;;;;;27.54;19.31;93753.28;5027890;28;20021;-38
2023/03/19 11:00:45;;;;;;;;;;;;;;;26.58;19.91;93751.03;5061414;28;19961;-38
2023/03/19 11:03:30;;;;;;;;;;;;;;;25.61;20.54;93742.75;5032550;28;19965;-38
2023/03/19 11:06:26;;;;;;;;;;;;;;;26.91;19.54;93736.78;5021606;28;19938;-38
2023/03/19 11:08:54;;;;;;;;;;;;;;;26.57;19.69;93737.53;5019506;28;19967;-38
2023/03/19 11:11:23;;;;;;;;;;;;;;;26.42;20.18;93735.53;5052445;28;20060;-38
2023/03/19 11:13:49;;;;;;;;;;;;;;;26.55;20.35;93737.47;5020756;28;19946;-38
2023/03/19 11:16:14;;;;;;;;;;;;;;;26.51;21.51;93729.50;5016104;28;19953;-38
2023/03/19 11:18:40;;;;;;;;;;;;;;;26.19;21.75;93728.22;5023892;28;20065;-38
2023/03/19 11:21:07;;;;;;;;;;;;;;;26.25;21.52;93726.38;5024084;28;19959;-38
2023/03/19 11:23:39;;;;;;;;;;;;;;;26.36;20.06;93727.50;5026389;28;20309;-38
2023/03/19 11:26:04;;;;;;;;;;;;;;;26.40;20.87;93722.00;5022185;28;19938;-38
2023/03/19 11:28:32;;;;;;;;;;;;;;;26.67;20.73;93724.50;5025951;28;19931;-38
2023/03/19 11:31:01;;;;;;;;;;;;;;;26.78;20.40;93706.53;5019990;28;19942;-38
2023/03/19 11:33:32;;;;;;;;;;;;;;;26.92;20.76;93714.84;5017884;28;20049;-38
2023/03/19 11:36:03;;;;;;;;;;;;;;;26.00;21.45;93711.84;5021747;28;20590;-38
2023/03/19 11:38:49;;;;;;;;;;;;;;;25.17;21.68;93701.94;5021478;28;19930;-37
2023/03/19 11:41:21;;;;;;;;;;;;;;;25.61;21.53;93703.88;5016547;28;19990;-37
2023/03/19 11:43:50;;;;;;;;;;;;;;;25.46;22.36;93693.34;5019189;28;19949;-37
2023/03/19 11:46:19;;;;;;;;;;;;;;;25.54;21.07;93696.50;5021379;28;20002;-37
2023/03/19 11:49:04;;;;;;;;;;;;;;;25.25;22.25;93693.81;5017427;28;19959;-37
2023/03/19 11:51:38;;;;;;;;;;;;;;;24.16;20.83;93686.00;5022578;28;19945;-37
2023/03/19 11:54:04;;;;;;;;;;;;;;;24.52;21.97;93684.13;5035873;28;19948;-37
2023/03/19 11:56:31;;;;;;;;;;;;;;;24.53;21.33;93685.59;5021097;28;20013;-37
2023/03/19 11:59:04;;;;;;;;;;;;;;;24.88;21.19;93687.94;5020713;28;19955;-37
2023/03/19 12:01:42;;;;;;;;;;;;;;;24.51;21.81;93674.22;5032127;28;19960;-37
2023/03/19 12:04:27;;;;;;;;;;;;;;;24.16;21.92;93668.34;5014800;28;20016;-37
2023/03/19 12:06:59;;;;;;;;;;;;;;;24.10;21.83;93672.31;5016672;28;20423;-37
2023/03/19 12:09:27;;;;;;;;;;;;;;;23.64;23.22;93672.88;5025548;28;19945;-37
2023/03/19 12:11:59;;;;;;;;;;;;;;;23.47;23.26;93667.81;5025184;28;19942;-37
2023/03/19 12:14:36;;;;;;;;;;;;;;;23.43;24.47;93667.63;5025536;28;20473;-37
2023/03/19 12:17:06;;;;;;;;;;;;;;;23.43;23.61;93658.44;5022572;28;20341;-37
2023/03/19 12:19:45;;;;;;;;;;;;;;;22.96;23.82;93660.94;5046049;28;19952;-37
2023/03/19 12:22:16;;;;;;;;;;;;;;;22.55;25.56;93660.88;5052354;28;19941;-37
2023/03/19 12:24:45;;;;;;;;;;;;;;;22.61;24.84;93655.59;5020875;28;19936;-37
2023/03/19 12:27:29;;;;;;;;;;;;;;;22.48;24.44;93654.19;5018912;28;19933;-37
2023/03/19 12:29:59;;;;;;;;;;;;;;;22.50;23.58;93653.59;5049470;28;20021;-37
2023/03/19 12:32:28;;;;;;;;;;;;;;;22.05;25.80;93646.91;5018410;28;19963;-37
2023/03/19 12:34:56;;;;;;;;;;;;;;;22.09;23.30;93644.34;5019756;28;19995;-37
2023/03/19 12:37:30;;;;;;;;;;;;;;;22.28;23.00;93641.16;5046695;28;19984;-37
2023/03/19 12:40:21;;;;;;;;;;;;;;;22.25;24.74;93633.94;5019059;28;19937;-37
2023/03/19 12:42:46;;;;;;;;;;;;;;;22.02;25.48;93632.03;5014391;28;19988;-37
2023/03/19 12:45:21;;;;;;;;;;;;;;;21.94;24.20;93636.47;5017666;28;19979;-37